createdAt,value
2023-12-14T00:01:19.856Z,20.45
2023-12-14T00:03:47.368Z,16.65
2023-12-14T00:06:15.410Z,21.38
2023-12-14T00:08:42.835Z,18.13
2023-12-14T00:11:12.011Z,17.10
2023-12-14T00:13:40.081Z,18.08
2023-12-14T00:16:08.495Z,13.13
2023-12-14T00:18:36.077Z,16.45
2023-12-14T00:21:03.800Z,14.75
2023-12-14T00:23:31.160Z,21.90
2023-12-14T00:25:58.432Z,20.73
2023-12-14T00:28:28.441Z,18.67
2023-12-14T00:30:58.161Z,11.32
2023-12-14T00:33:25.522Z,19.02
2023-12-14T00:35:52.886Z,15.80
2023-12-14T00:38:20.108Z,16.92
2023-12-14T00:40:47.431Z,12.80
2023-12-14T00:43:14.723Z,20.10
2023-12-14T00:45:44.628Z,15.23
2023-12-14T00:48:11.978Z,11.20
2023-12-14T00:50:39.254Z,17.55
2023-12-14T00:53:06.452Z,9.18
2023-12-14T00:55:33.912Z,14.70
2023-12-14T00:58:01.130Z,7.90
2023-12-14T01:00:28.557Z,14.25
2023-12-14T01:02:55.773Z,15.35
2023-12-14T01:05:23.106Z,11.88
2023-12-14T01:07:50.331Z,7.00
2023-12-14T01:10:17.584Z,13.68
2023-12-14T01:12:44.755Z,12.63
2023-12-14T01:15:12.318Z,11.98
2023-12-14T01:17:40.220Z,10.48
2023-12-14T01:20:08.738Z,18.55
2023-12-14T01:22:36.376Z,8.45
2023-12-14T01:25:04.340Z,12.43
2023-12-14T01:27:31.626Z,19.75
2023-12-14T01:29:58.906Z,12.82
2023-12-14T01:32:26.121Z,10.82
2023-12-14T01:34:53.458Z,17.15
2023-12-14T01:37:20.834Z,12.65
2023-12-14T01:39:48.536Z,13.70
2023-12-14T01:42:15.647Z,18.48
2023-12-14T01:44:43.050Z,23.88
2023-12-14T01:47:10.356Z,16.63
2023-12-14T01:49:37.742Z,16.08
2023-12-14T01:52:05.189Z,19.05
2023-12-14T01:54:32.412Z,20.48
2023-12-14T01:57:00.247Z,20.33
2023-12-14T01:59:27.465Z,22.75
2023-12-14T02:01:58.002Z,28.35
2023-12-14T02:04:27.329Z,17.38
2023-12-14T02:06:54.762Z,16.92
2023-12-14T02:09:22.064Z,23.25
2023-12-14T02:11:49.348Z,15.82
2023-12-14T02:14:16.657Z,22.15
2023-12-14T02:16:43.950Z,28.00
2023-12-14T02:19:11.413Z,22.38
2023-12-14T02:21:38.784Z,17.33
2023-12-14T02:24:06.292Z,11.65
2023-12-14T02:26:33.662Z,14.60
2023-12-14T02:29:01.203Z,19.80
2023-12-14T02:31:28.591Z,7.80
2023-12-14T02:33:55.899Z,17.10
2023-12-14T02:36:23.105Z,13.98
2023-12-14T02:38:50.614Z,15.10
2023-12-14T02:41:17.943Z,20.05
2023-12-14T02:43:45.216Z,19.88
2023-12-14T02:46:14.853Z,14.85
2023-12-14T02:48:46.585Z,15.63
2023-12-14T02:51:17.308Z,15.15
2023-12-14T02:53:44.785Z,18.48
2023-12-14T02:56:12.656Z,13.38
2023-12-14T02:58:40.126Z,14.15
2023-12-14T03:01:07.516Z,23.95
2023-12-14T03:03:34.924Z,18.65
2023-12-14T03:06:02.164Z,16.25
2023-12-14T03:08:29.377Z,12.57
2023-12-14T03:10:56.635Z,21.40
2023-12-14T03:13:23.896Z,9.48
2023-12-14T03:15:51.060Z,11.55
2023-12-14T03:18:18.478Z,15.35
2023-12-14T03:20:45.902Z,16.27
2023-12-14T03:23:13.274Z,12.43
2023-12-14T03:25:40.773Z,9.13
2023-12-14T03:28:08.107Z,16.23
2023-12-14T03:30:35.230Z,7.47
2023-12-14T03:33:02.609Z,9.13
2023-12-14T03:35:29.904Z,9.00
2023-12-14T03:37:57.162Z,16.10
2023-12-14T03:40:24.209Z,7.15
2023-12-14T03:42:51.407Z,6.07
2023-12-14T03:45:18.713Z,6.32
2023-12-14T03:47:45.891Z,7.45
2023-12-14T03:50:14.082Z,6.93
2023-12-14T03:52:41.988Z,10.85
2023-12-14T03:55:09.924Z,8.55
2023-12-14T03:57:37.395Z,6.53
2023-12-14T04:00:04.849Z,8.65
2023-12-14T04:02:32.458Z,7.82
2023-12-14T04:04:59.869Z,12.50
2023-12-14T04:07:27.170Z,9.05
2023-12-14T04:09:54.306Z,6.07
2023-12-14T04:12:21.578Z,14.57
2023-12-14T04:14:48.754Z,7.72
2023-12-14T04:17:16.006Z,8.30
2023-12-14T04:19:43.645Z,7.90
2023-12-14T04:22:10.951Z,9.70
2023-12-14T04:24:38.066Z,6.93
2023-12-14T04:27:05.835Z,11.98
2023-12-14T04:29:32.884Z,7.55
2023-12-14T04:32:00.350Z,11.65
2023-12-14T04:34:27.608Z,18.02
2023-12-14T04:36:58.665Z,14.82
2023-12-14T04:39:26.815Z,8.63
2023-12-14T04:41:54.591Z,8.38
2023-12-14T04:44:22.840Z,8.80
2023-12-14T04:46:50.355Z,7.35
2023-12-14T04:49:18.557Z,3.85
2023-12-14T04:51:46.030Z,5.45
2023-12-14T04:54:13.360Z,6.93
2023-12-14T04:56:40.737Z,14.10
2023-12-14T04:59:08.180Z,13.13
2023-12-14T05:01:35.341Z,14.65
2023-12-14T05:04:04.058Z,7.32
2023-12-14T05:06:31.455Z,13.32
2023-12-14T05:09:00.036Z,7.90
2023-12-14T05:11:27.265Z,10.60
2023-12-14T05:13:54.578Z,9.63
2023-12-14T05:16:21.732Z,9.27
2023-12-14T05:18:49.137Z,10.73
2023-12-14T05:21:19.391Z,18.75
2023-12-14T05:23:47.004Z,10.50
2023-12-14T05:26:14.372Z,12.85
2023-12-14T05:28:42.050Z,15.27
2023-12-14T05:31:09.287Z,11.65
2023-12-14T05:33:40.567Z,11.32
2023-12-14T05:36:11.880Z,12.25
2023-12-14T05:38:43.256Z,18.77
2023-12-14T05:41:11.647Z,11.05
2023-12-14T05:43:39.041Z,14.18
2023-12-14T05:46:06.759Z,8.63
2023-12-14T05:48:34.116Z,12.35
2023-12-14T05:51:02.551Z,11.05
2023-12-14T05:53:30.365Z,11.38
2023-12-14T05:55:57.604Z,7.68
2023-12-14T05:58:24.887Z,9.73
2023-12-14T06:00:52.041Z,12.05
2023-12-14T06:03:19.255Z,6.45
2023-12-14T06:05:46.640Z,7.85
2023-12-14T06:08:14.127Z,11.55
2023-12-14T06:10:41.532Z,14.48
2023-12-14T06:13:08.741Z,7.82
2023-12-14T06:15:36.102Z,12.73
2023-12-14T06:18:03.364Z,7.60
2023-12-14T06:20:30.672Z,10.80
2023-12-14T06:22:57.955Z,9.98
2023-12-14T06:25:25.287Z,8.55
2023-12-14T06:27:52.434Z,8.15
2023-12-14T06:30:20.006Z,5.82
2023-12-14T06:32:47.439Z,6.75
2023-12-14T06:35:15.021Z,13.02
2023-12-14T06:37:45.601Z,5.40
2023-12-14T06:40:13.096Z,7.63
2023-12-14T06:42:40.651Z,6.60
2023-12-14T06:45:08.602Z,10.23
2023-12-14T06:47:35.782Z,14.45
2023-12-14T06:50:03.266Z,6.90
2023-12-14T06:52:31.137Z,10.60
2023-12-14T06:54:58.349Z,10.25
2023-12-14T06:57:27.686Z,8.48
2023-12-14T06:59:55.375Z,10.48
2023-12-14T07:02:22.591Z,15.27
2023-12-14T07:04:50.219Z,9.43
2023-12-14T07:07:17.535Z,12.65
2023-12-14T07:09:47.506Z,10.32
2023-12-14T07:12:15.239Z,14.48
2023-12-14T07:14:42.646Z,13.60
2023-12-14T07:17:10.168Z,10.95
2023-12-14T07:19:37.318Z,8.15
2023-12-14T07:22:04.688Z,13.15
2023-12-14T07:24:40.496Z,8.98
2023-12-14T07:27:16.299Z,11.73
2023-12-14T07:29:43.540Z,12.02
2023-12-14T07:32:10.778Z,8.20
2023-12-14T07:34:38.011Z,8.75
2023-12-14T07:37:05.231Z,5.95
2023-12-14T07:39:32.922Z,6.22
2023-12-14T07:42:00.326Z,10.40
2023-12-14T07:44:31.221Z,11.57
2023-12-14T07:47:02.442Z,7.13
2023-12-14T07:49:29.761Z,11.55
2023-12-14T07:51:56.937Z,9.93
2023-12-14T07:54:24.268Z,12.52
2023-12-14T07:56:51.411Z,4.45
2023-12-14T07:59:19.095Z,5.82
2023-12-14T08:01:46.862Z,7.00
2023-12-14T08:04:14.199Z,6.43
2023-12-14T08:06:41.563Z,9.07
2023-12-14T08:09:08.923Z,15.63
2023-12-14T08:11:36.312Z,8.07
2023-12-14T08:14:04.507Z,14.40
2023-12-14T08:16:32.061Z,11.43
2023-12-14T08:18:59.591Z,8.88
2023-12-14T08:21:26.949Z,11.57
2023-12-14T08:23:54.726Z,7.10
2023-12-14T08:26:22.163Z,8.57
2023-12-14T08:28:49.484Z,6.30
2023-12-14T08:31:16.831Z,11.95
2023-12-14T08:33:47.298Z,11.68
2023-12-14T08:36:18.018Z,13.15
2023-12-14T08:38:45.400Z,15.18
2023-12-14T08:41:16.604Z,12.13
2023-12-14T08:43:44.522Z,14.20
2023-12-14T08:46:11.968Z,17.67
2023-12-14T08:48:39.408Z,14.85
2023-12-14T08:51:07.298Z,13.27
2023-12-14T08:53:34.865Z,14.85
2023-12-14T08:56:03.880Z,11.90
2023-12-14T08:58:31.408Z,15.02
2023-12-14T09:00:58.646Z,14.40
2023-12-14T09:03:27.888Z,9.20
2023-12-14T09:05:55.545Z,8.65
2023-12-14T09:08:22.974Z,9.35
2023-12-14T09:10:50.487Z,6.50
2023-12-14T09:13:17.709Z,6.00
2023-12-14T09:15:45.136Z,6.95
2023-12-14T09:18:12.430Z,4.47
2023-12-14T09:20:41.776Z,1.85
2023-12-14T09:23:09.483Z,4.97
2023-12-14T09:25:37.019Z,4.07
2023-12-14T09:28:04.806Z,5.72
2023-12-14T09:30:32.085Z,4.05
2023-12-14T09:32:59.544Z,7.82
2023-12-14T09:35:27.036Z,5.88
2023-12-14T09:37:54.897Z,9.90
2023-12-14T09:40:23.347Z,2.10
2023-12-14T09:42:50.755Z,3.92
2023-12-14T09:45:18.769Z,4.93
2023-12-14T09:47:47.754Z,4.80
2023-12-14T09:50:16.384Z,7.65
2023-12-14T09:52:46.739Z,6.65
2023-12-14T09:55:14.505Z,10.68
2023-12-14T09:57:41.916Z,7.35
2023-12-14T10:00:12.278Z,7.32
2023-12-14T10:02:39.668Z,5.25
2023-12-14T10:05:11.805Z,2.00
2023-12-14T10:07:47.404Z,7.25
2023-12-14T10:10:16.413Z,5.03
2023-12-14T10:12:54.560Z,4.75
2023-12-14T10:15:25.615Z,6.28
2023-12-14T10:17:55.863Z,4.57
2023-12-14T10:20:25.006Z,5.72
2023-12-14T10:22:52.484Z,7.85
2023-12-14T10:25:21.002Z,7.20
2023-12-14T10:27:49.311Z,4.30
2023-12-14T10:30:16.993Z,5.57
2023-12-14T10:32:45.099Z,3.83
2023-12-14T10:35:13.925Z,4.53
2023-12-14T10:37:41.537Z,5.15
2023-12-14T10:40:11.750Z,3.50
2023-12-14T10:42:44.053Z,5.80
2023-12-14T10:45:19.887Z,4.95
2023-12-14T10:47:50.405Z,5.85
2023-12-14T10:50:20.131Z,2.38
2023-12-14T10:52:48.003Z,2.88
2023-12-14T10:55:39.813Z,2.90
2023-12-14T10:58:09.016Z,6.43
2023-12-14T11:00:37.844Z,2.03
2023-12-14T11:03:08.403Z,4.32
2023-12-14T11:05:36.439Z,6.35
2023-12-14T11:08:10.571Z,4.22
2023-12-14T11:10:43.319Z,9.85
2023-12-14T11:13:16.180Z,5.78
2023-12-14T11:15:51.457Z,4.65
2023-12-14T11:18:27.548Z,5.07
2023-12-14T11:21:00.441Z,6.90
2023-12-14T11:23:32.047Z,9.52
2023-12-14T11:26:04.795Z,4.78
2023-12-14T11:28:43.396Z,5.65
2023-12-14T11:31:14.660Z,5.55
2023-12-14T11:33:44.489Z,5.85
2023-12-14T11:36:16.050Z,5.15
2023-12-14T11:38:45.035Z,8.05
2023-12-14T11:41:12.462Z,4.18
2023-12-14T11:43:46.575Z,16.45
2023-12-14T11:46:15.371Z,6.22
2023-12-14T11:48:45.196Z,4.03
2023-12-14T11:51:12.716Z,4.40
2023-12-14T11:53:40.586Z,5.40
2023-12-14T11:56:08.502Z,6.25
2023-12-14T11:58:36.029Z,3.85
2023-12-14T12:01:36.996Z,4.30
2023-12-14T12:04:11.721Z,9.80
2023-12-14T12:06:39.112Z,7.40
2023-12-14T12:09:09.614Z,10.52
2023-12-14T12:11:37.797Z,5.93
2023-12-14T12:14:06.900Z,4.63
2023-12-14T12:16:35.204Z,4.43
2023-12-14T12:19:02.624Z,5.03
2023-12-14T12:21:29.733Z,2.35
2023-12-14T12:23:56.893Z,5.20
2023-12-14T12:26:24.280Z,7.82
2023-12-14T12:28:51.497Z,6.22
2023-12-14T12:31:18.922Z,4.03
2023-12-14T12:33:46.230Z,3.80
2023-12-14T12:36:13.577Z,4.95
2023-12-14T12:38:41.873Z,4.72
2023-12-14T12:41:09.796Z,7.00
2023-12-14T12:43:37.380Z,5.40
2023-12-14T12:46:04.878Z,8.27
2023-12-14T12:48:32.347Z,4.13
2023-12-14T12:50:59.887Z,5.38
2023-12-14T12:53:28.079Z,3.45
2023-12-14T12:55:55.581Z,7.13
2023-12-14T12:58:22.825Z,5.00
2023-12-14T13:00:50.632Z,3.55
2023-12-14T13:03:18.180Z,5.30
2023-12-14T13:05:46.133Z,3.92
2023-12-14T13:08:13.509Z,4.85
2023-12-14T13:10:40.903Z,2.70
2023-12-14T13:13:09.708Z,7.05
2023-12-14T13:15:40.395Z,5.07
2023-12-14T13:18:07.919Z,7.68
2023-12-14T13:20:35.249Z,6.18
2023-12-14T13:23:02.765Z,3.33
2023-12-14T13:25:30.161Z,5.90
2023-12-14T13:27:57.994Z,5.95
2023-12-14T13:30:25.375Z,7.30
2023-12-14T13:32:55.443Z,5.82
2023-12-14T13:35:23.851Z,5.65
2023-12-14T13:37:51.620Z,10.95
2023-12-14T13:40:19.914Z,3.97
2023-12-14T13:42:55.169Z,3.55
2023-12-14T13:45:32.102Z,8.07
2023-12-14T13:48:00.629Z,6.13
2023-12-14T13:50:29.623Z,7.05
2023-12-14T13:52:57.948Z,4.63
2023-12-14T13:55:25.385Z,8.23
2023-12-14T13:57:52.689Z,6.40
2023-12-14T14:00:20.522Z,7.55
2023-12-14T14:02:47.656Z,9.43
2023-12-14T14:05:15.285Z,8.05
2023-12-14T14:07:42.729Z,9.25
2023-12-14T14:10:11.203Z,3.70
2023-12-14T14:12:38.581Z,8.02
2023-12-14T14:15:06.822Z,6.13
2023-12-14T14:17:33.976Z,8.75
2023-12-14T14:20:01.318Z,5.03
2023-12-14T14:22:28.711Z,6.13
2023-12-14T14:24:55.935Z,4.25
2023-12-14T14:27:23.671Z,8.05
2023-12-14T14:29:57.716Z,7.63
2023-12-14T14:32:25.167Z,5.75
2023-12-14T14:34:54.307Z,6.47
2023-12-14T14:37:21.827Z,4.47
2023-12-14T14:39:49.229Z,9.20
2023-12-14T14:42:16.463Z,6.57
2023-12-14T14:44:43.761Z,2.70
2023-12-14T14:47:10.990Z,3.97
2023-12-14T14:49:38.302Z,6.38
2023-12-14T14:52:05.829Z,3.67
2023-12-14T14:54:33.019Z,4.97
2023-12-14T14:57:00.466Z,6.60
2023-12-14T14:59:28.346Z,6.18
2023-12-14T15:01:56.961Z,5.70
2023-12-14T15:04:27.090Z,10.35
2023-12-14T15:06:54.693Z,3.78
2023-12-14T15:09:22.025Z,4.55
2023-12-14T15:11:49.374Z,5.38
2023-12-14T15:14:16.753Z,9.27
2023-12-14T15:16:44.211Z,5.32
2023-12-14T15:19:12.614Z,5.03
2023-12-14T15:21:40.223Z,7.90
2023-12-14T15:24:08.196Z,10.27
2023-12-14T15:26:35.548Z,5.57
2023-12-14T15:29:03.222Z,5.78
2023-12-14T15:31:30.979Z,8.27
2023-12-14T15:33:58.338Z,5.13
2023-12-14T15:36:26.217Z,8.95
2023-12-14T15:38:53.374Z,3.90
2023-12-14T15:41:20.963Z,7.07
2023-12-14T15:43:48.351Z,6.75
2023-12-14T15:46:15.739Z,7.53
2023-12-14T15:48:43.578Z,3.75
2023-12-14T15:51:11.052Z,4.80
2023-12-14T15:53:40.514Z,8.63
2023-12-14T15:56:08.341Z,4.68
2023-12-14T15:58:35.653Z,3.65
2023-12-14T16:01:03.269Z,6.10
2023-12-14T16:03:30.572Z,7.30
2023-12-14T16:05:58.008Z,7.20
2023-12-14T16:08:25.270Z,5.72
2023-12-14T16:10:54.663Z,7.57
2023-12-14T16:13:21.950Z,6.65
2023-12-14T16:15:49.488Z,11.02
2023-12-14T16:18:17.185Z,4.30
2023-12-14T16:20:45.072Z,3.50
2023-12-14T16:23:12.286Z,5.70
2023-12-14T16:25:39.539Z,3.10
2023-12-14T16:28:06.687Z,5.15
2023-12-14T16:30:34.092Z,4.05
2023-12-14T16:33:01.504Z,6.03
2023-12-14T16:35:29.615Z,8.02
2023-12-14T16:37:56.867Z,6.50
2023-12-14T16:40:24.200Z,6.50
2023-12-14T16:42:51.584Z,11.10
2023-12-14T16:45:18.880Z,7.60
2023-12-14T16:47:46.027Z,11.35
2023-12-14T16:50:13.469Z,8.27
2023-12-14T16:52:40.744Z,10.43
2023-12-14T16:55:09.036Z,7.95
2023-12-14T16:57:36.990Z,8.82
2023-12-14T17:00:05.465Z,8.10
2023-12-14T17:02:33.783Z,6.97
2023-12-14T17:05:03.775Z,7.60
2023-12-14T17:07:31.730Z,7.70
2023-12-14T17:09:59.009Z,7.45
2023-12-14T17:12:26.518Z,6.90
2023-12-14T17:14:53.758Z,8.85
2023-12-14T17:17:23.153Z,4.63
2023-12-14T17:19:50.830Z,10.75
2023-12-14T17:22:17.833Z,8.13
2023-12-14T17:24:45.199Z,9.77
2023-12-14T17:27:12.549Z,10.30
2023-12-14T17:29:39.772Z,10.25
2023-12-14T17:32:07.215Z,8.00
2023-12-14T17:34:36.110Z,7.40
2023-12-14T17:37:03.457Z,7.70
2023-12-14T17:39:31.549Z,7.40
2023-12-14T17:41:58.975Z,10.85
2023-12-14T17:44:26.562Z,12.43
2023-12-14T17:46:53.881Z,8.43
2023-12-14T17:49:21.619Z,8.75
2023-12-14T17:51:49.045Z,8.93
2023-12-14T17:54:16.353Z,9.40
2023-12-14T17:56:43.896Z,7.88
2023-12-14T17:59:11.350Z,8.85
2023-12-14T18:01:48.184Z,9.05
2023-12-14T18:04:15.784Z,8.77
2023-12-14T18:06:48.643Z,8.93
2023-12-14T18:09:15.985Z,4.78
2023-12-14T18:11:44.101Z,7.18
2023-12-14T18:14:11.865Z,7.60
2023-12-14T18:16:41.294Z,5.30
2023-12-14T18:19:08.950Z,9.48
2023-12-14T18:21:36.757Z,4.80
2023-12-14T18:24:05.166Z,10.80
2023-12-14T18:26:32.745Z,8.82
2023-12-14T18:29:00.203Z,3.88
2023-12-14T18:31:27.684Z,6.75
2023-12-14T18:33:55.745Z,6.72
2023-12-14T18:36:23.473Z,5.07
2023-12-14T18:38:50.737Z,8.30
2023-12-14T18:41:18.351Z,9.60
2023-12-14T18:43:45.706Z,13.13
2023-12-14T18:46:13.629Z,9.88
2023-12-14T18:48:41.332Z,12.98
2023-12-14T18:51:08.977Z,11.77
2023-12-14T18:53:36.076Z,10.82
2023-12-14T18:56:03.638Z,10.30
2023-12-14T18:58:30.843Z,5.20
2023-12-14T19:00:57.880Z,8.15
2023-12-14T19:03:24.830Z,9.65
2023-12-14T19:05:51.756Z,8.05
2023-12-14T19:08:18.798Z,10.15
2023-12-14T19:10:45.742Z,7.60
2023-12-14T19:13:12.668Z,8.20
2023-12-14T19:15:43.106Z,10.15
2023-12-14T19:18:11.093Z,7.97
2023-12-14T19:20:38.164Z,9.40
2023-12-14T19:23:05.173Z,11.85
2023-12-14T19:25:32.143Z,10.77
2023-12-14T19:27:59.173Z,12.95
2023-12-14T19:30:26.083Z,8.38
2023-12-14T19:32:53.739Z,6.78
2023-12-14T19:35:21.288Z,9.60
2023-12-14T19:37:51.175Z,9.20
2023-12-14T19:40:18.519Z,9.98
2023-12-14T19:42:45.507Z,8.13
2023-12-14T19:45:12.509Z,12.75
2023-12-14T19:47:41.900Z,10.98
2023-12-14T19:50:10.336Z,9.60
2023-12-14T19:52:37.226Z,14.05
2023-12-14T19:55:05.404Z,10.52
2023-12-14T19:57:32.443Z,11.75
2023-12-14T19:59:59.435Z,11.00
2023-12-14T20:02:26.336Z,11.95
2023-12-14T20:04:53.457Z,9.68
2023-12-14T20:07:20.484Z,10.27
2023-12-14T20:09:57.484Z,15.15
2023-12-14T20:12:28.139Z,15.88
2023-12-14T20:14:55.028Z,15.57
2023-12-14T20:17:22.085Z,19.42
2023-12-14T20:19:49.376Z,13.93
2023-12-14T20:22:16.339Z,18.42
2023-12-14T20:24:45.465Z,19.60
2023-12-14T20:27:12.509Z,13.82
2023-12-14T20:29:39.424Z,15.75
2023-12-14T20:32:06.712Z,17.60
2023-12-14T20:34:33.721Z,16.05
2023-12-14T20:37:00.764Z,12.25
2023-12-14T20:39:27.773Z,16.17
2023-12-14T20:41:54.752Z,22.83
2023-12-14T20:44:21.926Z,17.30
2023-12-14T20:46:49.204Z,18.58
2023-12-14T20:49:17.420Z,15.27
2023-12-14T20:51:44.950Z,17.05
2023-12-14T20:54:12.211Z,16.73
2023-12-14T20:56:39.520Z,17.63
2023-12-14T20:59:06.771Z,18.27
2023-12-14T21:01:34.283Z,20.25
2023-12-14T21:04:01.556Z,21.20
2023-12-14T21:06:31.726Z,19.45
2023-12-14T21:09:00.500Z,20.83
2023-12-14T21:11:27.895Z,23.85
2023-12-14T21:13:55.332Z,28.42
2023-12-14T21:16:22.548Z,24.33
2023-12-14T21:18:50.086Z,21.38
2023-12-14T21:21:17.445Z,26.17
2023-12-14T21:23:44.683Z,24.23
2023-12-14T21:26:17.381Z,24.85
2023-12-14T21:28:44.765Z,22.05
2023-12-14T21:31:12.052Z,24.73
2023-12-14T21:33:39.764Z,29.02
2023-12-14T21:36:07.242Z,31.15
2023-12-14T21:38:34.733Z,27.33
2023-12-14T21:41:02.128Z,27.55
2023-12-14T21:43:29.526Z,23.83
2023-12-14T21:45:56.958Z,27.77
2023-12-14T21:48:24.370Z,29.40
2023-12-14T21:50:51.775Z,30.45
2023-12-14T21:53:19.108Z,36.13
2023-12-14T21:55:46.412Z,31.63
2023-12-14T21:58:13.796Z,36.85
2023-12-14T22:00:41.047Z,26.33
2023-12-14T22:03:08.413Z,34.67
2023-12-14T22:05:35.732Z,27.30
2023-12-14T22:08:03.318Z,27.42
2023-12-14T22:10:30.499Z,31.95
2023-12-14T22:12:58.624Z,28.05
2023-12-14T22:15:26.196Z,31.83
2023-12-14T22:17:53.632Z,31.70
2023-12-14T22:20:20.966Z,31.75
2023-12-14T22:22:48.346Z,27.83
2023-12-14T22:25:15.773Z,37.88
2023-12-14T22:27:43.097Z,32.72
2023-12-14T22:30:10.616Z,33.42
2023-12-14T22:32:38.044Z,30.02
2023-12-14T22:35:05.826Z,32.22
2023-12-14T22:37:33.741Z,36.75
2023-12-14T22:40:01.130Z,38.40
2023-12-14T22:42:28.422Z,37.67
2023-12-14T22:44:55.483Z,34.28
2023-12-14T22:47:22.908Z,31.70
2023-12-14T22:49:50.217Z,30.23
2023-12-14T22:52:17.394Z,36.20
2023-12-14T22:54:44.670Z,38.92
2023-12-14T22:57:12.039Z,36.70
2023-12-14T22:59:40.329Z,32.30
2023-12-14T23:02:07.826Z,46.28
2023-12-14T23:04:35.356Z,40.40
2023-12-14T23:07:03.616Z,37.17
2023-12-14T23:09:30.884Z,35.10
2023-12-14T23:11:59.140Z,41.28
2023-12-14T23:14:26.287Z,37.40
2023-12-14T23:16:53.845Z,37.03
2023-12-14T23:19:21.126Z,41.45
2023-12-14T23:21:48.352Z,39.83
2023-12-14T23:24:15.576Z,40.08
2023-12-14T23:26:42.869Z,41.05
2023-12-14T23:29:10.060Z,41.42
2023-12-14T23:31:37.288Z,43.22
2023-12-14T23:34:04.517Z,40.50
2023-12-14T23:36:31.939Z,46.40
2023-12-14T23:38:59.201Z,37.05
2023-12-14T23:41:26.586Z,49.97
2023-12-14T23:43:56.313Z,39.72
2023-12-14T23:46:24.035Z,39.40
2023-12-14T23:48:51.344Z,41.13
2023-12-14T23:51:18.759Z,44.15
2023-12-14T23:53:45.977Z,42.60
2023-12-14T23:56:13.616Z,44.60
2023-12-14T23:58:40.873Z,40.97
